sensor_id;sensor_type;location;lat;lon;timestamp;P1;durP1;ratioP1;P2;durP2;ratioP2
15466;SDS011;7834;49.452;11.056;2023-05-03T00:00:34;6.88;;;5.95;;
15466;SDS011;7834;49.452;11.056;2023-05-03T00:03:00;6.68;;;6.03;;
15466;SDS011;7834;49.452;11.056;2023-05-03T00:05:28;7.00;;;6.30;;
15466;SDS011;7834;49.452;11.056;2023-05-03T00:07:55;6.45;;;5.85;;
15466;SDS011;7834;49.452;11.056;2023-05-03T00:10:21;6.85;;;6.10;;
15466;SDS011;7834;49.452;11.056;2023-05-03T00:12:47;7.50;;;6.18;;
15466;SDS011;7834;49.452;11.056;2023-05-03T00:15:13;7.32;;;6.40;;
15466;SDS011;7834;49.452;11.056;2023-05-03T00:17:39;7.85;;;6.18;;
15466;SDS011;7834;49.452;11.056;2023-05-03T00:20:05;8.85;;;6.53;;
15466;SDS011;7834;49.452;11.056;2023-05-03T00:22:32;7.70;;;6.35;;
15466;SDS011;7834;49.452;11.056;2023-05-03T00:24:58;7.63;;;6.65;;
15466;SDS011;7834;49.452;11.056;2023-05-03T00:27:24;7.20;;;6.50;;
15466;SDS011;7834;49.452;11.056;2023-05-03T00:29:53;7.88;;;6.70;;
15466;SDS011;7834;49.452;11.056;2023-05-03T00:32:19;7.57;;;6.78;;
15466;SDS011;7834;49.452;11.056;2023-05-03T00:34:51;7.50;;;6.72;;
15466;SDS011;7834;49.452;11.056;2023-05-03T00:37:17;9.23;;;7.03;;
15466;SDS011;7834;49.452;11.056;2023-05-03T00:39:43;8.00;;;7.03;;
15466;SDS011;7834;49.452;11.056;2023-05-03T00:42:09;9.88;;;7.35;;
15466;SDS011;7834;49.452;11.056;2023-05-03T00:44:35;8.90;;;7.10;;
15466;SDS011;7834;49.452;11.056;2023-05-03T00:47:01;7.63;;;6.90;;
15466;SDS011;7834;49.452;11.056;2023-05-03T00:49:28;8.98;;;7.32;;
15466;SDS011;7834;49.452;11.056;2023-05-03T00:51:54;9.20;;;7.45;;
15466;SDS011;7834;49.452;11.056;2023-05-03T00:54:23;9.37;;;7.37;;
15466;SDS011;7834;49.452;11.056;2023-05-03T00:56:49;9.90;;;7.50;;
15466;SDS011;7834;49.452;11.056;2023-05-03T00:59:15;10.60;;;7.97;;
15466;SDS011;7834;49.452;11.056;2023-05-03T01:01:42;12.43;;;8.70;;
15466;SDS011;7834;49.452;11.056;2023-05-03T01:04:09;11.02;;;9.10;;
15466;SDS011;7834;49.452;11.056;2023-05-03T01:06:39;12.13;;;9.60;;
15466;SDS011;7834;49.452;11.056;2023-05-03T01:09:14;12.75;;;9.90;;
15466;SDS011;7834;49.452;11.056;2023-05-03T01:17:08;14.43;;;10.68;;
15466;SDS011;7834;49.452;11.056;2023-05-03T01:19:37;13.50;;;10.77;;
15466;SDS011;7834;49.452;11.056;2023-05-03T01:22:16;13.73;;;10.63;;
15466;SDS011;7834;49.452;11.056;2023-05-03T01:24:46;14.80;;;11.00;;
15466;SDS011;7834;49.452;11.056;2023-05-03T01:27:14;15.63;;;11.50;;
15466;SDS011;7834;49.452;11.056;2023-05-03T01:29:40;14.43;;;11.18;;
15466;SDS011;7834;49.452;11.056;2023-05-03T01:32:08;17.67;;;11.65;;
15466;SDS011;7834;49.452;11.056;2023-05-03T01:34:39;15.65;;;12.02;;
15466;SDS011;7834;49.452;11.056;2023-05-03T01:37:06;14.80;;;11.47;;
15466;SDS011;7834;49.452;11.056;2023-05-03T01:39:37;13.65;;;11.23;;
15466;SDS011;7834;49.452;11.056;2023-05-03T01:42:05;15.73;;;11.60;;
15466;SDS011;7834;49.452;11.056;2023-05-03T01:44:31;15.50;;;11.52;;
15466;SDS011;7834;49.452;11.056;2023-05-03T01:46:57;14.85;;;11.60;;
15466;SDS011;7834;49.452;11.056;2023-05-03T01:49:23;14.95;;;11.95;;
15466;SDS011;7834;49.452;11.056;2023-05-03T01:51:49;16.57;;;11.83;;
15466;SDS011;7834;49.452;11.056;2023-05-03T01:54:15;14.33;;;12.00;;
15466;SDS011;7834;49.452;11.056;2023-05-03T01:56:42;16.70;;;12.68;;
15466;SDS011;7834;49.452;11.056;2023-05-03T01:59:08;16.50;;;12.55;;
15466;SDS011;7834;49.452;11.056;2023-05-03T02:01:34;17.50;;;12.70;;
15466;SDS011;7834;49.452;11.056;2023-05-03T02:04:00;16.50;;;12.70;;
15466;SDS011;7834;49.452;11.056;2023-05-03T02:06:27;18.20;;;13.07;;
15466;SDS011;7834;49.452;11.056;2023-05-03T02:08:53;16.70;;;12.70;;
15466;SDS011;7834;49.452;11.056;2023-05-03T02:11:19;16.43;;;12.70;;
15466;SDS011;7834;49.452;11.056;2023-05-03T02:13:47;17.02;;;12.80;;
15466;SDS011;7834;49.452;11.056;2023-05-03T02:16:13;17.85;;;13.10;;
15466;SDS011;7834;49.452;11.056;2023-05-03T02:18:39;18.75;;;12.60;;
15466;SDS011;7834;49.452;11.056;2023-05-03T02:21:05;17.08;;;13.05;;
15466;SDS011;7834;49.452;11.056;2023-05-03T02:23:33;16.45;;;12.40;;
15466;SDS011;7834;49.452;11.056;2023-05-03T02:25:59;15.18;;;12.30;;
15466;SDS011;7834;49.452;11.056;2023-05-03T02:28:25;14.15;;;12.65;;
15466;SDS011;7834;49.452;11.056;2023-05-03T02:30:51;16.70;;;12.10;;
15466;SDS011;7834;49.452;11.056;2023-05-03T02:33:17;16.33;;;12.55;;
15466;SDS011;7834;49.452;11.056;2023-05-03T02:35:43;16.10;;;12.60;;
15466;SDS011;7834;49.452;11.056;2023-05-03T02:38:09;17.58;;;12.52;;
15466;SDS011;7834;49.452;11.056;2023-05-03T02:40:35;17.27;;;12.63;;
15466;SDS011;7834;49.452;11.056;2023-05-03T02:43:01;16.67;;;12.93;;
15466;SDS011;7834;49.452;11.056;2023-05-03T02:45:27;16.95;;;12.88;;
15466;SDS011;7834;49.452;11.056;2023-05-03T02:47:56;17.02;;;12.55;;
15466;SDS011;7834;49.452;11.056;2023-05-03T02:50:23;15.25;;;11.48;;
15466;SDS011;7834;49.452;11.056;2023-05-03T02:52:49;16.90;;;12.65;;
15466;SDS011;7834;49.452;11.056;2023-05-03T02:55:15;15.48;;;11.80;;
15466;SDS011;7834;49.452;11.056;2023-05-03T02:57:41;16.23;;;12.35;;
15466;SDS011;7834;49.452;11.056;2023-05-03T03:00:07;16.15;;;11.70;;
15466;SDS011;7834;49.452;11.056;2023-05-03T03:02:35;16.92;;;11.60;;
15466;SDS011;7834;49.452;11.056;2023-05-03T03:05:01;20.23;;;12.60;;
15466;SDS011;7834;49.452;11.056;2023-05-03T03:07:27;14.73;;;11.97;;
15466;SDS011;7834;49.452;11.056;2023-05-03T03:09:53;15.68;;;12.38;;
15466;SDS011;7834;49.452;11.056;2023-05-03T03:12:19;17.52;;;12.45;;
15466;SDS011;7834;49.452;11.056;2023-05-03T03:14:45;17.92;;;12.50;;
15466;SDS011;7834;49.452;11.056;2023-05-03T03:17:11;16.70;;;12.10;;
15466;SDS011;7834;49.452;11.056;2023-05-03T03:19:37;17.67;;;12.90;;
15466;SDS011;7834;49.452;11.056;2023-05-03T03:22:03;15.23;;;12.23;;
15466;SDS011;7834;49.452;11.056;2023-05-03T03:24:30;17.20;;;12.40;;
15466;SDS011;7834;49.452;11.056;2023-05-03T03:26:56;19.67;;;12.38;;
15466;SDS011;7834;49.452;11.056;2023-05-03T03:29:23;18.17;;;12.60;;
15466;SDS011;7834;49.452;11.056;2023-05-03T03:31:49;17.80;;;12.57;;
15466;SDS011;7834;49.452;11.056;2023-05-03T03:34:15;14.18;;;11.68;;
15466;SDS011;7834;49.452;11.056;2023-05-03T03:36:41;16.27;;;12.02;;
15466;SDS011;7834;49.452;11.056;2023-05-03T03:39:07;18.60;;;12.02;;
15466;SDS011;7834;49.452;11.056;2023-05-03T03:41:34;15.23;;;12.30;;
15466;SDS011;7834;49.452;11.056;2023-05-03T03:44:01;16.20;;;12.40;;
15466;SDS011;7834;49.452;11.056;2023-05-03T03:46:27;15.85;;;12.68;;
15466;SDS011;7834;49.452;11.056;2023-05-03T03:48:53;16.17;;;12.82;;
15466;SDS011;7834;49.452;11.056;2023-05-03T03:51:19;15.15;;;11.95;;
15466;SDS011;7834;49.452;11.056;2023-05-03T03:53:45;14.93;;;12.10;;
15466;SDS011;7834;49.452;11.056;2023-05-03T03:56:11;16.98;;;11.77;;
15466;SDS011;7834;49.452;11.056;2023-05-03T03:58:37;16.10;;;12.32;;
15466;SDS011;7834;49.452;11.056;2023-05-03T04:01:03;15.85;;;12.25;;
15466;SDS011;7834;49.452;11.056;2023-05-03T04:03:29;17.35;;;12.70;;
15466;SDS011;7834;49.452;11.056;2023-05-03T04:05:55;17.48;;;12.57;;
15466;SDS011;7834;49.452;11.056;2023-05-03T04:08:21;17.65;;;12.82;;
15466;SDS011;7834;49.452;11.056;2023-05-03T04:10:47;19.60;;;13.20;;
15466;SDS011;7834;49.452;11.056;2023-05-03T04:13:14;16.73;;;13.17;;
15466;SDS011;7834;49.452;11.056;2023-05-03T04:15:40;16.92;;;13.43;;
15466;SDS011;7834;49.452;11.056;2023-05-03T04:18:06;16.77;;;12.63;;
15466;SDS011;7834;49.452;11.056;2023-05-03T04:20:32;18.48;;;13.00;;
15466;SDS011;7834;49.452;11.056;2023-05-03T04:22:58;19.02;;;12.88;;
15466;SDS011;7834;49.452;11.056;2023-05-03T04:25:24;19.67;;;13.35;;
15466;SDS011;7834;49.452;11.056;2023-05-03T04:27:51;18.15;;;13.80;;
15466;SDS011;7834;49.452;11.056;2023-05-03T04:30:17;18.67;;;12.95;;
15466;SDS011;7834;49.452;11.056;2023-05-03T04:32:44;21.27;;;13.57;;
15466;SDS011;7834;49.452;11.056;2023-05-03T04:35:11;17.77;;;13.60;;
15466;SDS011;7834;49.452;11.056;2023-05-03T04:37:37;17.90;;;13.38;;
15466;SDS011;7834;49.452;11.056;2023-05-03T04:40:04;20.83;;;14.07;;
15466;SDS011;7834;49.452;11.056;2023-05-03T04:42:36;20.65;;;13.68;;
15466;SDS011;7834;49.452;11.056;2023-05-03T04:45:02;18.15;;;13.20;;
15466;SDS011;7834;49.452;11.056;2023-05-03T04:47:30;19.63;;;13.25;;
15466;SDS011;7834;49.452;11.056;2023-05-03T04:49:56;18.58;;;13.18;;
15466;SDS011;7834;49.452;11.056;2023-05-03T04:52:24;18.52;;;12.90;;
15466;SDS011;7834;49.452;11.056;2023-05-03T04:54:51;17.75;;;13.77;;
15466;SDS011;7834;49.452;11.056;2023-05-03T04:57:17;17.73;;;13.23;;
15466;SDS011;7834;49.452;11.056;2023-05-03T04:59:43;20.50;;;12.95;;
15466;SDS011;7834;49.452;11.056;2023-05-03T05:02:09;18.13;;;12.70;;
15466;SDS011;7834;49.452;11.056;2023-05-03T05:04:35;19.67;;;13.02;;
15466;SDS011;7834;49.452;11.056;2023-05-03T05:07:01;18.73;;;12.82;;
15466;SDS011;7834;49.452;11.056;2023-05-03T05:09:28;17.23;;;13.15;;
15466;SDS011;7834;49.452;11.056;2023-05-03T05:11:57;19.50;;;13.77;;
15466;SDS011;7834;49.452;11.056;2023-05-03T05:14:25;18.77;;;12.68;;
15466;SDS011;7834;49.452;11.056;2023-05-03T05:16:52;15.77;;;12.52;;
15466;SDS011;7834;49.452;11.056;2023-05-03T05:19:18;19.75;;;12.63;;
15466;SDS011;7834;49.452;11.056;2023-05-03T05:21:44;17.52;;;12.55;;
15466;SDS011;7834;49.452;11.056;2023-05-03T05:24:10;17.20;;;12.20;;
15466;SDS011;7834;49.452;11.056;2023-05-03T05:26:36;18.55;;;12.30;;
15466;SDS011;7834;49.452;11.056;2023-05-03T05:29:02;14.20;;;12.15;;
15466;SDS011;7834;49.452;11.056;2023-05-03T05:31:30;14.98;;;11.75;;
15466;SDS011;7834;49.452;11.056;2023-05-03T05:33:56;15.85;;;12.48;;
15466;SDS011;7834;49.452;11.056;2023-05-03T05:36:22;16.25;;;12.23;;
15466;SDS011;7834;49.452;11.056;2023-05-03T05:38:48;16.27;;;11.90;;
15466;SDS011;7834;49.452;11.056;2023-05-03T05:41:14;17.38;;;12.13;;
15466;SDS011;7834;49.452;11.056;2023-05-03T05:43:40;18.63;;;12.07;;
15466;SDS011;7834;49.452;11.056;2023-05-03T05:46:06;17.05;;;12.70;;
15466;SDS011;7834;49.452;11.056;2023-05-03T05:48:32;17.13;;;12.27;;
15466;SDS011;7834;49.452;11.056;2023-05-03T05:50:58;17.10;;;12.20;;
15466;SDS011;7834;49.452;11.056;2023-05-03T05:53:24;17.92;;;12.80;;
15466;SDS011;7834;49.452;11.056;2023-05-03T05:55:50;15.52;;;12.40;;
15466;SDS011;7834;49.452;11.056;2023-05-03T05:58:16;17.42;;;12.65;;
15466;SDS011;7834;49.452;11.056;2023-05-03T06:00:42;18.17;;;12.43;;
15466;SDS011;7834;49.452;11.056;2023-05-03T06:03:09;17.70;;;12.18;;
15466;SDS011;7834;49.452;11.056;2023-05-03T06:05:35;15.00;;;11.77;;
15466;SDS011;7834;49.452;11.056;2023-05-03T06:08:01;15.98;;;11.45;;
15466;SDS011;7834;49.452;11.056;2023-05-03T06:10:28;16.23;;;11.30;;
15466;SDS011;7834;49.452;11.056;2023-05-03T06:12:54;15.43;;;11.40;;
15466;SDS011;7834;49.452;11.056;2023-05-03T06:15:20;16.40;;;11.68;;
15466;SDS011;7834;49.452;11.056;2023-05-03T06:17:46;13.75;;;11.02;;
15466;SDS011;7834;49.452;11.056;2023-05-03T06:20:12;13.98;;;10.90;;
15466;SDS011;7834;49.452;11.056;2023-05-03T06:22:38;15.45;;;11.30;;
15466;SDS011;7834;49.452;11.056;2023-05-03T06:25:04;16.00;;;10.73;;
15466;SDS011;7834;49.452;11.056;2023-05-03T06:27:31;18.88;;;11.43;;
15466;SDS011;7834;49.452;11.056;2023-05-03T06:29:57;17.17;;;10.90;;
15466;SDS011;7834;49.452;11.056;2023-05-03T06:32:23;14.98;;;11.18;;
15466;SDS011;7834;49.452;11.056;2023-05-03T06:34:49;14.77;;;10.95;;
15466;SDS011;7834;49.452;11.056;2023-05-03T06:37:16;14.43;;;11.20;;
15466;SDS011;7834;49.452;11.056;2023-05-03T06:39:42;14.02;;;11.32;;
15466;SDS011;7834;49.452;11.056;2023-05-03T06:42:08;14.48;;;10.77;;
15466;SDS011;7834;49.452;11.056;2023-05-03T06:44:35;14.15;;;11.00;;
15466;SDS011;7834;49.452;11.056;2023-05-03T06:47:01;13.43;;;10.70;;
15466;SDS011;7834;49.452;11.056;2023-05-03T06:49:27;15.70;;;11.23;;
15466;SDS011;7834;49.452;11.056;2023-05-03T06:51:53;12.90;;;10.10;;
15466;SDS011;7834;49.452;11.056;2023-05-03T06:54:19;14.07;;;10.35;;
15466;SDS011;7834;49.452;11.056;2023-05-03T06:56:45;12.23;;;10.50;;
15466;SDS011;7834;49.452;11.056;2023-05-03T06:59:11;14.02;;;10.60;;
15466;SDS011;7834;49.452;11.056;2023-05-03T07:01:37;13.05;;;10.18;;
15466;SDS011;7834;49.452;11.056;2023-05-03T07:04:03;12.10;;;9.98;;
15466;SDS011;7834;49.452;11.056;2023-05-03T07:06:29;14.63;;;9.75;;
15466;SDS011;7834;49.452;11.056;2023-05-03T07:08:55;13.25;;;9.88;;
15466;SDS011;7834;49.452;11.056;2023-05-03T07:11:22;11.73;;;9.38;;
15466;SDS011;7834;49.452;11.056;2023-05-03T07:13:51;14.80;;;9.80;;
15466;SDS011;7834;49.452;11.056;2023-05-03T07:16:17;15.10;;;9.88;;
15466;SDS011;7834;49.452;11.056;2023-05-03T07:18:43;15.10;;;9.52;;
15466;SDS011;7834;49.452;11.056;2023-05-03T07:21:10;12.33;;;9.10;;
15466;SDS011;7834;49.452;11.056;2023-05-03T07:23:37;11.32;;;9.13;;
15466;SDS011;7834;49.452;11.056;2023-05-03T07:26:03;14.55;;;9.25;;
15466;SDS011;7834;49.452;11.056;2023-05-03T07:28:29;14.27;;;9.32;;
15466;SDS011;7834;49.452;11.056;2023-05-03T07:30:55;12.32;;;8.80;;
15466;SDS011;7834;49.452;11.056;2023-05-03T07:33:21;11.80;;;9.00;;
15466;SDS011;7834;49.452;11.056;2023-05-03T07:35:48;12.48;;;8.70;;
15466;SDS011;7834;49.452;11.056;2023-05-03T07:38:14;11.32;;;8.75;;
15466;SDS011;7834;49.452;11.056;2023-05-03T07:40:40;11.60;;;8.63;;
15466;SDS011;7834;49.452;11.056;2023-05-03T07:43:07;14.23;;;8.70;;
15466;SDS011;7834;49.452;11.056;2023-05-03T07:45:37;11.85;;;8.43;;
15466;SDS011;7834;49.452;11.056;2023-05-03T07:48:03;12.02;;;8.60;;
15466;SDS011;7834;49.452;11.056;2023-05-03T07:50:30;11.82;;;8.90;;
15466;SDS011;7834;49.452;11.056;2023-05-03T07:52:56;10.90;;;8.35;;
15466;SDS011;7834;49.452;11.056;2023-05-03T07:55:22;13.32;;;8.60;;
15466;SDS011;7834;49.452;11.056;2023-05-03T07:57:53;12.07;;;8.43;;
15466;SDS011;7834;49.452;11.056;2023-05-03T08:00:23;11.75;;;8.20;;
15466;SDS011;7834;49.452;11.056;2023-05-03T08:02:49;12.20;;;8.00;;
15466;SDS011;7834;49.452;11.056;2023-05-03T08:05:15;13.50;;;8.55;;
15466;SDS011;7834;49.452;11.056;2023-05-03T08:07:41;10.48;;;8.02;;
15466;SDS011;7834;49.452;11.056;2023-05-03T08:10:08;11.45;;;7.85;;
15466;SDS011;7834;49.452;11.056;2023-05-03T08:12:34;13.63;;;7.88;;
15466;SDS011;7834;49.452;11.056;2023-05-03T08:15:01;13.32;;;10.07;;
15466;SDS011;7834;49.452;11.056;2023-05-03T08:17:31;12.70;;;8.40;;
15466;SDS011;7834;49.452;11.056;2023-05-03T08:19:57;9.25;;;7.63;;
15466;SDS011;7834;49.452;11.056;2023-05-03T08:22:23;11.90;;;7.57;;
15466;SDS011;7834;49.452;11.056;2023-05-03T08:24:51;8.20;;;7.40;;
15466;SDS011;7834;49.452;11.056;2023-05-03T08:27:17;8.10;;;6.93;;
15466;SDS011;7834;49.452;11.056;2023-05-03T08:29:43;9.13;;;7.13;;
15466;SDS011;7834;49.452;11.056;2023-05-03T08:32:10;8.65;;;6.85;;
15466;SDS011;7834;49.452;11.056;2023-05-03T08:34:36;9.53;;;6.93;;
15466;SDS011;7834;49.452;11.056;2023-05-03T08:37:02;9.38;;;6.90;;
15466;SDS011;7834;49.452;11.056;2023-05-03T08:39:29;8.43;;;6.80;;
15466;SDS011;7834;49.452;11.056;2023-05-03T08:41:56;9.35;;;6.47;;
15466;SDS011;7834;49.452;11.056;2023-05-03T08:44:23;68.57;;;12.77;;
15466;SDS011;7834;49.452;11.056;2023-05-03T08:46:53;8.35;;;6.95;;
15466;SDS011;7834;49.452;11.056;2023-05-03T08:49:19;8.73;;;6.60;;
15466;SDS011;7834;49.452;11.056;2023-05-03T08:51:45;8.25;;;7.13;;
15466;SDS011;7834;49.452;11.056;2023-05-03T08:54:13;8.88;;;6.80;;
15466;SDS011;7834;49.452;11.056;2023-05-03T08:56:41;8.80;;;6.83;;
15466;SDS011;7834;49.452;11.056;2023-05-03T08:59:07;8.02;;;6.65;;
15466;SDS011;7834;49.452;11.056;2023-05-03T09:01:37;7.78;;;6.60;;
15466;SDS011;7834;49.452;11.056;2023-05-03T09:04:04;7.93;;;6.50;;
15466;SDS011;7834;49.452;11.056;2023-05-03T09:06:30;7.47;;;6.20;;
15466;SDS011;7834;49.452;11.056;2023-05-03T09:09:01;7.47;;;6.30;;
15466;SDS011;7834;49.452;11.056;2023-05-03T09:11:31;7.40;;;6.00;;
15466;SDS011;7834;49.452;11.056;2023-05-03T09:14:31;7.82;;;6.65;;
15466;SDS011;7834;49.452;11.056;2023-05-03T09:16:50;9.38;;;6.10;;
15466;SDS011;7834;49.452;11.056;2023-05-03T09:19:16;8.17;;;6.50;;
15466;SDS011;7834;49.452;11.056;2023-05-03T09:21:42;7.05;;;6.35;;
15466;SDS011;7834;49.452;11.056;2023-05-03T09:24:12;7.15;;;5.80;;
15466;SDS011;7834;49.452;11.056;2023-05-03T09:26:39;6.40;;;5.75;;
15466;SDS011;7834;49.452;11.056;2023-05-03T09:29:06;9.73;;;5.77;;
15466;SDS011;7834;49.452;11.056;2023-05-03T09:31:32;6.30;;;5.38;;
15466;SDS011;7834;49.452;11.056;2023-05-03T09:33:59;6.20;;;5.53;;
15466;SDS011;7834;49.452;11.056;2023-05-03T09:36:25;6.88;;;5.55;;
15466;SDS011;7834;49.452;11.056;2023-05-03T09:38:55;6.82;;;5.32;;
15466;SDS011;7834;49.452;11.056;2023-05-03T09:41:27;6.57;;;5.78;;
15466;SDS011;7834;49.452;11.056;2023-05-03T09:43:53;7.57;;;5.63;;
15466;SDS011;7834;49.452;11.056;2023-05-03T09:46:21;7.35;;;6.50;;
15466;SDS011;7834;49.452;11.056;2023-05-03T09:48:51;7.10;;;6.40;;
15466;SDS011;7834;49.452;11.056;2023-05-03T09:51:19;8.93;;;5.90;;
15466;SDS011;7834;49.452;11.056;2023-05-03T09:53:46;7.47;;;5.55;;
15466;SDS011;7834;49.452;11.056;2023-05-03T09:56:13;7.27;;;5.50;;
15466;SDS011;7834;49.452;11.056;2023-05-03T09:58:40;6.97;;;5.53;;
15466;SDS011;7834;49.452;11.056;2023-05-03T10:01:07;6.97;;;5.85;;
15466;SDS011;7834;49.452;11.056;2023-05-03T10:03:37;7.07;;;5.47;;
15466;SDS011;7834;49.452;11.056;2023-05-03T10:06:05;6.50;;;5.82;;
15466;SDS011;7834;49.452;11.056;2023-05-03T10:08:39;6.80;;;5.70;;
15466;SDS011;7834;49.452;11.056;2023-05-03T10:11:09;6.47;;;5.22;;
15466;SDS011;7834;49.452;11.056;2023-05-03T10:13:36;6.70;;;5.72;;
15466;SDS011;7834;49.452;11.056;2023-05-03T10:16:05;6.72;;;5.85;;
15466;SDS011;7834;49.452;11.056;2023-05-03T10:18:36;6.75;;;5.25;;
15466;SDS011;7834;49.452;11.056;2023-05-03T10:21:08;6.68;;;5.32;;
15466;SDS011;7834;49.452;11.056;2023-05-03T10:23:47;7.00;;;4.93;;
15466;SDS011;7834;49.452;11.056;2023-05-03T10:26:22;6.45;;;5.20;;
15466;SDS011;7834;49.452;11.056;2023-05-03T10:28:49;6.28;;;4.90;;
15466;SDS011;7834;49.452;11.056;2023-05-03T10:34:00;6.05;;;5.45;;
15466;SDS011;7834;49.452;11.056;2023-05-03T10:36:26;6.90;;;5.13;;
15466;SDS011;7834;49.452;11.056;2023-05-03T10:38:52;6.72;;;5.95;;
15466;SDS011;7834;49.452;11.056;2023-05-03T10:41:24;6.38;;;5.78;;
15466;SDS011;7834;49.452;11.056;2023-05-03T10:43:51;5.53;;;4.85;;
15466;SDS011;7834;49.452;11.056;2023-05-03T10:46:28;7.53;;;5.07;;
15466;SDS011;7834;49.452;11.056;2023-05-03T10:49:14;5.60;;;4.75;;
15466;SDS011;7834;49.452;11.056;2023-05-03T10:51:40;6.07;;;4.82;;
15466;SDS011;7834;49.452;11.056;2023-05-03T10:54:07;5.77;;;4.60;;
15466;SDS011;7834;49.452;11.056;2023-05-03T10:56:43;6.53;;;5.38;;
15466;SDS011;7834;49.452;11.056;2023-05-03T10:59:11;6.07;;;5.38;;
15466;SDS011;7834;49.452;11.056;2023-05-03T11:01:38;6.85;;;5.68;;
15466;SDS011;7834;49.452;11.056;2023-05-03T11:04:18;6.13;;;5.23;;
15466;SDS011;7834;49.452;11.056;2023-05-03T11:06:46;7.13;;;5.43;;
15466;SDS011;7834;49.452;11.056;2023-05-03T11:09:15;5.72;;;5.07;;
15466;SDS011;7834;49.452;11.056;2023-05-03T11:11:41;6.10;;;5.43;;
15466;SDS011;7834;49.452;11.056;2023-05-03T11:14:08;6.75;;;5.10;;
15466;SDS011;7834;49.452;11.056;2023-05-03T11:16:34;5.50;;;5.00;;
15466;SDS011;7834;49.452;11.056;2023-05-03T11:19:01;5.40;;;4.90;;
15466;SDS011;7834;49.452;11.056;2023-05-03T11:21:27;6.90;;;4.95;;
15466;SDS011;7834;49.452;11.056;2023-05-03T11:23:53;7.40;;;5.30;;
15466;SDS011;7834;49.452;11.056;2023-05-03T11:26:19;6.13;;;4.78;;
15466;SDS011;7834;49.452;11.056;2023-05-03T11:28:49;5.43;;;4.90;;
15466;SDS011;7834;49.452;11.056;2023-05-03T11:31:16;5.97;;;5.28;;
15466;SDS011;7834;49.452;11.056;2023-05-03T11:33:42;6.03;;;4.78;;
15466;SDS011;7834;49.452;11.056;2023-05-03T11:36:08;7.18;;;4.47;;
15466;SDS011;7834;49.452;11.056;2023-05-03T11:38:34;5.40;;;4.30;;
15466;SDS011;7834;49.452;11.056;2023-05-03T11:41:08;4.43;;;3.97;;
15466;SDS011;7834;49.452;11.056;2023-05-03T11:43:40;4.55;;;4.10;;
15466;SDS011;7834;49.452;11.056;2023-05-03T11:46:06;5.03;;;4.10;;
15466;SDS011;7834;49.452;11.056;2023-05-03T11:48:33;5.65;;;4.32;;
15466;SDS011;7834;49.452;11.056;2023-05-03T11:50:59;5.32;;;4.35;;
15466;SDS011;7834;49.452;11.056;2023-05-03T11:53:25;5.13;;;4.53;;
15466;SDS011;7834;49.452;11.056;2023-05-03T11:55:52;6.82;;;4.80;;
15466;SDS011;7834;49.452;11.056;2023-05-03T11:58:22;5.57;;;4.50;;
15466;SDS011;7834;49.452;11.056;2023-05-03T12:00:52;4.80;;;3.90;;
15466;SDS011;7834;49.452;11.056;2023-05-03T12:03:19;7.20;;;4.80;;
15466;SDS011;7834;49.452;11.056;2023-05-03T12:05:46;6.68;;;4.85;;
15466;SDS011;7834;49.452;11.056;2023-05-03T12:08:12;6.43;;;5.10;;
15466;SDS011;7834;49.452;11.056;2023-05-03T12:10:39;6.72;;;5.00;;
15466;SDS011;7834;49.452;11.056;2023-05-03T12:13:06;5.30;;;4.32;;
15466;SDS011;7834;49.452;11.056;2023-05-03T12:15:33;6.72;;;4.55;;
15466;SDS011;7834;49.452;11.056;2023-05-03T12:18:00;5.65;;;4.63;;
15466;SDS011;7834;49.452;11.056;2023-05-03T12:20:27;5.50;;;4.03;;
15466;SDS011;7834;49.452;11.056;2023-05-03T12:23:00;6.20;;;4.22;;
15466;SDS011;7834;49.452;11.056;2023-05-03T12:25:27;5.45;;;4.78;;
15466;SDS011;7834;49.452;11.056;2023-05-03T12:27:54;5.63;;;3.90;;
15466;SDS011;7834;49.452;11.056;2023-05-03T12:30:22;4.72;;;3.83;;
15466;SDS011;7834;49.452;11.056;2023-05-03T12:32:48;4.55;;;3.90;;
15466;SDS011;7834;49.452;11.056;2023-05-03T12:35:14;5.75;;;4.10;;
15466;SDS011;7834;49.452;11.056;2023-05-03T12:37:40;4.53;;;4.10;;
15466;SDS011;7834;49.452;11.056;2023-05-03T12:40:06;6.10;;;3.70;;
15466;SDS011;7834;49.452;11.056;2023-05-03T12:42:32;4.30;;;3.83;;
15466;SDS011;7834;49.452;11.056;2023-05-03T12:44:58;4.95;;;4.15;;
15466;SDS011;7834;49.452;11.056;2023-05-03T12:47:25;4.88;;;4.30;;
15466;SDS011;7834;49.452;11.056;2023-05-03T12:49:51;5.03;;;3.75;;
15466;SDS011;7834;49.452;11.056;2023-05-03T12:52:18;4.18;;;3.75;;
15466;SDS011;7834;49.452;11.056;2023-05-03T12:54:45;5.65;;;4.00;;
15466;SDS011;7834;49.452;11.056;2023-05-03T12:57:11;5.50;;;4.20;;
15466;SDS011;7834;49.452;11.056;2023-05-03T12:59:38;3.90;;;3.20;;
15466;SDS011;7834;49.452;11.056;2023-05-03T13:02:05;3.75;;;3.45;;
15466;SDS011;7834;49.452;11.056;2023-05-03T13:04:32;5.15;;;3.53;;
15466;SDS011;7834;49.452;11.056;2023-05-03T13:06:58;4.45;;;3.40;;
15466;SDS011;7834;49.452;11.056;2023-05-03T13:09:24;4.90;;;3.53;;
15466;SDS011;7834;49.452;11.056;2023-05-03T13:11:51;3.90;;;3.25;;
15466;SDS011;7834;49.452;11.056;2023-05-03T13:14:17;4.18;;;3.38;;
15466;SDS011;7834;49.452;11.056;2023-05-03T13:16:44;3.95;;;3.33;;
15466;SDS011;7834;49.452;11.056;2023-05-03T13:19:11;4.83;;;3.70;;
15466;SDS011;7834;49.452;11.056;2023-05-03T13:21:37;4.28;;;3.65;;
15466;SDS011;7834;49.452;11.056;2023-05-03T13:24:03;3.90;;;3.50;;
15466;SDS011;7834;49.452;11.056;2023-05-03T13:26:29;4.47;;;3.70;;
15466;SDS011;7834;49.452;11.056;2023-05-03T13:28:56;4.03;;;3.45;;
15466;SDS011;7834;49.452;11.056;2023-05-03T13:31:22;4.82;;;3.13;;
15466;SDS011;7834;49.452;11.056;2023-05-03T13:33:48;3.50;;;3.03;;
15466;SDS011;7834;49.452;11.056;2023-05-03T13:36:18;4.03;;;3.70;;
15466;SDS011;7834;49.452;11.056;2023-05-03T13:38:46;4.28;;;3.50;;
15466;SDS011;7834;49.452;11.056;2023-05-03T13:41:13;4.13;;;3.47;;
15466;SDS011;7834;49.452;11.056;2023-05-03T13:43:39;3.65;;;3.25;;
15466;SDS011;7834;49.452;11.056;2023-05-03T13:46:08;3.23;;;2.93;;
15466;SDS011;7834;49.452;11.056;2023-05-03T13:48:34;5.07;;;3.00;;
15466;SDS011;7834;49.452;11.056;2023-05-03T13:51:10;3.97;;;3.10;;
15466;SDS011;7834;49.452;11.056;2023-05-03T13:53:36;4.00;;;2.78;;
15466;SDS011;7834;49.452;11.056;2023-05-03T13:56:02;4.03;;;2.90;;
15466;SDS011;7834;49.452;11.056;2023-05-03T13:58:29;4.10;;;3.10;;
15466;SDS011;7834;49.452;11.056;2023-05-03T14:00:55;11.80;;;8.27;;
15466;SDS011;7834;49.452;11.056;2023-05-03T14:03:21;3.58;;;3.20;;
15466;SDS011;7834;49.452;11.056;2023-05-03T14:05:47;3.35;;;2.92;;
15466;SDS011;7834;49.452;11.056;2023-05-03T14:08:14;4.75;;;3.20;;
15466;SDS011;7834;49.452;11.056;2023-05-03T14:10:41;3.97;;;2.90;;
15466;SDS011;7834;49.452;11.056;2023-05-03T14:13:07;3.25;;;2.92;;
15466;SDS011;7834;49.452;11.056;2023-05-03T14:15:39;3.25;;;2.70;;
15466;SDS011;7834;49.452;11.056;2023-05-03T14:18:06;3.00;;;2.70;;
15466;SDS011;7834;49.452;11.056;2023-05-03T14:20:33;3.30;;;2.80;;
15466;SDS011;7834;49.452;11.056;2023-05-03T14:22:59;4.38;;;2.80;;
15466;SDS011;7834;49.452;11.056;2023-05-03T14:25:26;2.85;;;2.60;;
15466;SDS011;7834;49.452;11.056;2023-05-03T14:27:52;3.38;;;2.90;;
15466;SDS011;7834;49.452;11.056;2023-05-03T14:30:19;3.08;;;2.60;;
15466;SDS011;7834;49.452;11.056;2023-05-03T14:32:45;3.65;;;2.80;;
15466;SDS011;7834;49.452;11.056;2023-05-03T14:35:12;5.80;;;2.83;;
15466;SDS011;7834;49.452;11.056;2023-05-03T14:37:38;3.73;;;2.63;;
15466;SDS011;7834;49.452;11.056;2023-05-03T14:40:04;4.22;;;3.45;;
15466;SDS011;7834;49.452;11.056;2023-05-03T14:42:30;3.10;;;2.80;;